sensor_id;sensor_type;location;lat;lon;timestamp;pressure;altitude;pressure_sealevel;temperature;humidity
66430;BME280;53242;51.694;10.006;2023-02-28T00:00:06;100964.84;;;0.64;61.13
66430;BME280;53242;51.694;10.006;2023-02-28T00:02:32;100964.47;;;0.56;61.60
66430;BME280;53242;51.694;10.006;2023-02-28T00:04:54;100956.88;;;0.67;60.75
66430;BME280;53242;51.694;10.006;2023-02-28T00:07:23;100967.88;;;0.71;60.75
66430;BME280;53242;51.694;10.006;2023-02-28T00:09:45;100967.72;;;0.59;61.41
66430;BME280;53242;51.694;10.006;2023-02-28T00:12:08;100971.72;;;0.65;61.22
66430;BME280;53242;51.694;10.006;2023-02-28T00:14:32;100969.03;;;0.38;62.11
66430;BME280;53242;51.694;10.006;2023-02-28T00:16:54;100962.06;;;0.53;61.67
66430;BME280;53242;51.694;10.006;2023-02-28T00:19:17;100963.25;;;0.61;61.54
66430;BME280;53242;51.694;10.006;2023-02-28T00:21:39;100958.72;;;0.51;61.14
66430;BME280;53242;51.694;10.006;2023-02-28T00:24:02;100953.81;;;0.46;61.99
66430;BME280;53242;51.694;10.006;2023-02-28T00:26:25;100962.53;;;0.59;61.20
66430;BME280;53242;51.694;10.006;2023-02-28T00:28:47;100960.56;;;0.48;61.30
66430;BME280;53242;51.694;10.006;2023-02-28T00:31:10;100957.97;;;0.63;60.74
66430;BME280;53242;51.694;10.006;2023-02-28T00:33:33;100956.13;;;0.65;60.94
66430;BME280;53242;51.694;10.006;2023-02-28T00:36:03;100958.25;;;0.73;60.77
66430;BME280;53242;51.694;10.006;2023-02-28T00:38:26;100958.16;;;0.74;60.63
66430;BME280;53242;51.694;10.006;2023-02-28T00:40:49;100960.19;;;0.69;60.75
66430;BME280;53242;51.694;10.006;2023-02-28T00:43:12;100962.63;;;0.72;60.21
66430;BME280;53242;51.694;10.006;2023-02-28T00:45:34;100964.56;;;0.69;60.25
66430;BME280;53242;51.694;10.006;2023-02-28T00:47:57;100955.47;;;0.61;58.64
66430;BME280;53242;51.694;10.006;2023-02-28T00:50:20;100967.91;;;0.56;59.18
66430;BME280;53242;51.694;10.006;2023-02-28T00:52:42;100956.47;;;0.73;59.37
66430;BME280;53242;51.694;10.006;2023-02-28T00:55:05;100960.19;;;0.69;59.12
66430;BME280;53242;51.694;10.006;2023-02-28T00:57:27;100963.81;;;0.52;60.05
66430;BME280;53242;51.694;10.006;2023-02-28T00:59:49;100966.88;;;0.59;60.11
66430;BME280;53242;51.694;10.006;2023-02-28T01:02:12;100968.34;;;0.63;59.32
66430;BME280;53242;51.694;10.006;2023-02-28T01:04:35;100956.94;;;0.65;59.07
66430;BME280;53242;51.694;10.006;2023-02-28T01:06:57;100954.53;;;0.62;59.97
66430;BME280;53242;51.694;10.006;2023-02-28T01:09:19;100959.44;;;0.53;59.73
66430;BME280;53242;51.694;10.006;2023-02-28T01:11:42;100959.63;;;0.64;58.69
66430;BME280;53242;51.694;10.006;2023-02-28T01:14:06;100957.59;;;0.69;57.95
66430;BME280;53242;51.694;10.006;2023-02-28T01:16:28;100952.78;;;0.63;58.29
66430;BME280;53242;51.694;10.006;2023-02-28T01:18:51;100952.16;;;0.59;57.52
66430;BME280;53242;51.694;10.006;2023-02-28T01:21:16;100951.75;;;0.65;57.79
66430;BME280;53242;51.694;10.006;2023-02-28T01:23:40;100947.09;;;0.71;57.44
66430;BME280;53242;51.694;10.006;2023-02-28T01:26:16;100951.94;;;0.62;57.81
66430;BME280;53242;51.694;10.006;2023-02-28T01:28:39;100949.06;;;0.53;58.06
66430;BME280;53242;51.694;10.006;2023-02-28T01:31:02;100950.00;;;0.52;58.04
66430;BME280;53242;51.694;10.006;2023-02-28T01:33:24;100941.94;;;0.56;57.56
66430;BME280;53242;51.694;10.006;2023-02-28T01:35:48;100941.53;;;0.77;56.92
66430;BME280;53242;51.694;10.006;2023-02-28T01:38:11;100949.16;;;0.51;57.56
66430;BME280;53242;51.694;10.006;2023-02-28T01:40:33;100945.47;;;0.26;58.56
66430;BME280;53242;51.694;10.006;2023-02-28T01:42:56;100940.34;;;0.54;57.24
66430;BME280;53242;51.694;10.006;2023-02-28T01:47:43;100939.25;;;0.43;57.64
66430;BME280;53242;51.694;10.006;2023-02-28T01:50:10;100936.84;;;0.40;58.05
66430;BME280;53242;51.694;10.006;2023-02-28T01:52:33;100934.59;;;0.34;56.85
66430;BME280;53242;51.694;10.006;2023-02-28T01:54:59;100935.16;;;0.54;56.63
66430;BME280;53242;51.694;10.006;2023-02-28T01:57:41;100930.50;;;0.59;57.15
66430;BME280;53242;51.694;10.006;2023-02-28T02:00:09;100931.44;;;0.58;57.05
66430;BME280;53242;51.694;10.006;2023-02-28T02:02:43;100928.56;;;0.62;56.72
66430;BME280;53242;51.694;10.006;2023-02-28T02:05:10;100929.66;;;0.73;56.41
66430;BME280;53242;51.694;10.006;2023-02-28T02:07:36;100932.38;;;0.57;56.74
66430;BME280;53242;51.694;10.006;2023-02-28T02:10:10;100932.84;;;0.63;56.58
66430;BME280;53242;51.694;10.006;2023-02-28T02:15:40;100914.53;;;0.65;56.35
66430;BME280;53242;51.694;10.006;2023-02-28T02:21:15;100917.03;;;0.67;57.20
66430;BME280;53242;51.694;10.006;2023-02-28T02:29:40;100908.72;;;0.47;58.97
66430;BME280;53242;51.694;10.006;2023-02-28T02:40:50;100904.06;;;0.52;59.09
66430;BME280;53242;51.694;10.006;2023-02-28T02:43:20;100907.16;;;0.44;58.73
66430;BME280;53242;51.694;10.006;2023-02-28T02:45:49;100914.75;;;0.47;58.42
66430;BME280;53242;51.694;10.006;2023-02-28T02:48:16;100911.50;;;0.58;56.97
66430;BME280;53242;51.694;10.006;2023-02-28T02:50:46;100913.53;;;0.68;57.12
66430;BME280;53242;51.694;10.006;2023-02-28T02:53:11;100917.97;;;0.65;57.37
66430;BME280;53242;51.694;10.006;2023-02-28T02:55:40;100916.22;;;0.66;57.25
66430;BME280;53242;51.694;10.006;2023-02-28T02:58:07;100915.31;;;0.67;57.22
66430;BME280;53242;51.694;10.006;2023-02-28T03:00:35;100911.22;;;0.48;58.71
66430;BME280;53242;51.694;10.006;2023-02-28T03:03:00;100921.06;;;0.29;59.40
66430;BME280;53242;51.694;10.006;2023-02-28T03:05:26;100923.47;;;0.46;59.84
66430;BME280;53242;51.694;10.006;2023-02-28T03:07:51;100921.53;;;0.36;59.72
66430;BME280;53242;51.694;10.006;2023-02-28T03:10:48;100923.16;;;0.65;59.47
66430;BME280;53242;51.694;10.006;2023-02-28T03:18:53;100919.28;;;0.73;59.05
66430;BME280;53242;51.694;10.006;2023-02-28T03:23:47;100920.28;;;0.70;58.86
66430;BME280;53242;51.694;10.006;2023-02-28T03:26:22;100925.38;;;0.72;58.50
66430;BME280;53242;51.694;10.006;2023-02-28T03:29:05;100921.00;;;0.87;58.82
66430;BME280;53242;51.694;10.006;2023-02-28T03:31:38;100924.91;;;0.79;59.07
66430;BME280;53242;51.694;10.006;2023-02-28T03:34:08;100919.84;;;0.63;59.49
66430;BME280;53242;51.694;10.006;2023-02-28T03:36:38;100932.28;;;0.58;59.97
66430;BME280;53242;51.694;10.006;2023-02-28T03:39:07;100924.28;;;0.61;60.13
66430;BME280;53242;51.694;10.006;2023-02-28T03:41:36;100926.88;;;0.61;60.02
66430;BME280;53242;51.694;10.006;2023-02-28T03:44:06;100922.06;;;0.70;59.90
66430;BME280;53242;51.694;10.006;2023-02-28T03:46:33;100928.84;;;0.72;59.64
66430;BME280;53242;51.694;10.006;2023-02-28T03:49:05;100923.44;;;0.75;59.55
66430;BME280;53242;51.694;10.006;2023-02-28T03:51:32;100926.41;;;0.69;59.76
66430;BME280;53242;51.694;10.006;2023-02-28T03:54:05;100928.97;;;0.84;58.80
66430;BME280;53242;51.694;10.006;2023-02-28T03:56:42;100919.47;;;0.70;59.45
66430;BME280;53242;51.694;10.006;2023-02-28T03:59:17;100925.16;;;0.62;60.09
66430;BME280;53242;51.694;10.006;2023-02-28T04:01:44;100924.59;;;0.28;60.55
66430;BME280;53242;51.694;10.006;2023-02-28T04:04:08;100917.72;;;0.56;59.96
66430;BME280;53242;51.694;10.006;2023-02-28T04:06:33;100921.34;;;0.53;59.78
66430;BME280;53242;51.694;10.006;2023-02-28T04:08:55;100925.75;;;0.65;59.60
66430;BME280;53242;51.694;10.006;2023-02-28T04:13:45;100935.34;;;0.65;59.99
66430;BME280;53242;51.694;10.006;2023-02-28T04:16:07;100940.06;;;0.73;58.71
66430;BME280;53242;51.694;10.006;2023-02-28T04:18:34;100938.75;;;0.80;59.17
66430;BME280;53242;51.694;10.006;2023-02-28T04:21:00;100941.28;;;0.67;59.13
66430;BME280;53242;51.694;10.006;2023-02-28T04:23:22;100933.38;;;0.69;58.81
66430;BME280;53242;51.694;10.006;2023-02-28T04:25:44;100932.84;;;0.63;58.73
66430;BME280;53242;51.694;10.006;2023-02-28T04:28:07;100946.53;;;0.65;57.31
66430;BME280;53242;51.694;10.006;2023-02-28T04:30:29;100940.88;;;0.88;56.56
66430;BME280;53242;51.694;10.006;2023-02-28T04:32:54;100942.84;;;0.84;56.42
66430;BME280;53242;51.694;10.006;2023-02-28T04:35:17;100942.53;;;0.89;57.21
66430;BME280;53242;51.694;10.006;2023-02-28T04:37:39;100939.31;;;0.85;56.40
66430;BME280;53242;51.694;10.006;2023-02-28T04:40:02;100941.91;;;0.85;55.40
66430;BME280;53242;51.694;10.006;2023-02-28T04:42:24;100937.53;;;0.86;56.56
66430;BME280;53242;51.694;10.006;2023-02-28T04:44:47;100935.38;;;0.92;56.56
66430;BME280;53242;51.694;10.006;2023-02-28T04:47:09;100933.56;;;0.80;56.49
66430;BME280;53242;51.694;10.006;2023-02-28T04:49:32;100941.69;;;0.88;56.54
66430;BME280;53242;51.694;10.006;2023-02-28T04:51:54;100942.09;;;0.82;57.91
66430;BME280;53242;51.694;10.006;2023-02-28T04:54:17;100941.69;;;0.88;57.04
66430;BME280;53242;51.694;10.006;2023-02-28T04:56:40;100931.31;;;0.88;56.69
66430;BME280;53242;51.694;10.006;2023-02-28T04:59:02;100932.50;;;0.97;56.28
66430;BME280;53242;51.694;10.006;2023-02-28T05:01:27;100935.19;;;0.95;56.34
66430;BME280;53242;51.694;10.006;2023-02-28T05:03:52;100933.31;;;0.97;56.58
66430;BME280;53242;51.694;10.006;2023-02-28T05:06:15;100925.34;;;0.86;57.12
66430;BME280;53242;51.694;10.006;2023-02-28T05:08:37;100930.00;;;0.81;57.25
66430;BME280;53242;51.694;10.006;2023-02-28T05:11:01;100941.25;;;0.81;57.61
66430;BME280;53242;51.694;10.006;2023-02-28T05:13:24;100939.31;;;0.85;57.62
66430;BME280;53242;51.694;10.006;2023-02-28T05:15:46;100935.38;;;0.92;58.32
66430;BME280;53242;51.694;10.006;2023-02-28T05:18:08;100942.47;;;0.90;58.43
66430;BME280;53242;51.694;10.006;2023-02-28T05:20:31;100942.09;;;0.82;58.63
66430;BME280;53242;51.694;10.006;2023-02-28T05:22:54;100948.53;;;0.62;58.72
66430;BME280;53242;51.694;10.006;2023-02-28T05:25:18;100949.16;;;0.65;57.46
66430;BME280;53242;51.694;10.006;2023-02-28T05:27:41;100939.97;;;0.60;57.55
66430;BME280;53242;51.694;10.006;2023-02-28T05:30:04;100945.25;;;0.73;57.50
66430;BME280;53242;51.694;10.006;2023-02-28T05:32:28;100940.63;;;0.63;57.09
66430;BME280;53242;51.694;10.006;2023-02-28T05:34:50;100947.47;;;0.79;56.83
66430;BME280;53242;51.694;10.006;2023-02-28T05:37:14;100947.88;;;0.58;57.82
66430;BME280;53242;51.694;10.006;2023-02-28T05:39:37;100948.97;;;0.69;57.44
66430;BME280;53242;51.694;10.006;2023-02-28T05:42:00;100940.34;;;0.82;56.99
66430;BME280;53242;51.694;10.006;2023-02-28T05:44:23;100948.31;;;0.79;56.79
66430;BME280;53242;51.694;10.006;2023-02-28T05:46:46;100954.16;;;0.83;58.15
66430;BME280;53242;51.694;10.006;2023-02-28T05:49:09;100947.84;;;0.73;58.38
66430;BME280;53242;51.694;10.006;2023-02-28T05:51:31;100954.69;;;0.88;58.81
66430;BME280;53242;51.694;10.006;2023-02-28T05:53:53;100954.28;;;0.67;58.83
66430;BME280;53242;51.694;10.006;2023-02-28T05:56:16;100955.44;;;0.76;58.26
66430;BME280;53242;51.694;10.006;2023-02-28T05:58:38;100957.50;;;0.85;57.64
66430;BME280;53242;51.694;10.006;2023-02-28T06:01:20;100951.91;;;0.91;57.37
66430;BME280;53242;51.694;10.006;2023-02-28T06:03:43;100954.06;;;0.85;57.51
66430;BME280;53242;51.694;10.006;2023-02-28T06:06:05;100962.16;;;0.80;57.17
66430;BME280;53242;51.694;10.006;2023-02-28T06:08:28;100956.75;;;0.83;57.09
66430;BME280;53242;51.694;10.006;2023-02-28T06:10:50;100964.38;;;0.72;57.77
66430;BME280;53242;51.694;10.006;2023-02-28T06:13:13;100963.25;;;0.76;57.01
66430;BME280;53242;51.694;10.006;2023-02-28T06:15:35;100962.41;;;0.90;56.48
66430;BME280;53242;51.694;10.006;2023-02-28T06:17:58;100955.59;;;1.02;56.41
66430;BME280;53242;51.694;10.006;2023-02-28T06:20:21;100961.75;;;0.86;56.86
66430;BME280;53242;51.694;10.006;2023-02-28T06:22:43;100963.16;;;0.92;56.79
66430;BME280;53242;51.694;10.006;2023-02-28T06:25:06;100972.81;;;0.75;57.23
66430;BME280;53242;51.694;10.006;2023-02-28T06:27:29;100971.78;;;0.78;57.15
66430;BME280;53242;51.694;10.006;2023-02-28T06:29:55;100976.72;;;0.68;57.26
66430;BME280;53242;51.694;10.006;2023-02-28T06:32:17;100974.75;;;0.72;57.17
66430;BME280;53242;51.694;10.006;2023-02-28T06:34:40;100976.72;;;0.68;57.12
66430;BME280;53242;51.694;10.006;2023-02-28T06:37:02;100981.16;;;0.80;57.10
66430;BME280;53242;51.694;10.006;2023-02-28T06:39:25;100981.16;;;0.80;57.40
66430;BME280;53242;51.694;10.006;2023-02-28T06:41:47;100984.88;;;0.91;57.36
66430;BME280;53242;51.694;10.006;2023-02-28T06:44:12;100985.44;;;0.81;57.39
66430;BME280;53242;51.694;10.006;2023-02-28T06:46:35;100984.03;;;0.90;57.66
66430;BME280;53242;51.694;10.006;2023-02-28T06:48:57;100989.78;;;0.81;57.90
66430;BME280;53242;51.694;10.006;2023-02-28T06:51:20;100986.47;;;0.79;58.29
66430;BME280;53242;51.694;10.006;2023-02-28T06:53:44;100994.44;;;0.90;58.05
66430;BME280;53242;51.694;10.006;2023-02-28T06:56:12;101000.91;;;0.97;57.67
66430;BME280;53242;51.694;10.006;2023-02-28T06:58:35;100990.06;;;0.91;57.86
66430;BME280;53242;51.694;10.006;2023-02-28T07:00:57;100984.75;;;0.92;58.45
66430;BME280;53242;51.694;10.006;2023-02-28T07:03:20;100988.00;;;0.96;58.16
66430;BME280;53242;51.694;10.006;2023-02-28T07:05:42;100991.19;;;1.28;57.54
66430;BME280;53242;51.694;10.006;2023-02-28T07:08:05;100989.88;;;1.08;58.13
66430;BME280;53242;51.694;10.006;2023-02-28T07:10:28;100994.22;;;1.08;57.80
66430;BME280;53242;51.694;10.006;2023-02-28T07:12:50;101001.47;;;1.03;57.76
66430;BME280;53242;51.694;10.006;2023-02-28T07:15:13;100996.69;;;1.24;57.46
66430;BME280;53242;51.694;10.006;2023-02-28T07:17:36;101004.03;;;1.17;57.94
66430;BME280;53242;51.694;10.006;2023-02-28T07:19:58;100994.97;;;1.10;58.11
66430;BME280;53242;51.694;10.006;2023-02-28T07:22:20;101002.19;;;1.19;58.02
66430;BME280;53242;51.694;10.006;2023-02-28T07:24:43;101009.91;;;1.06;58.35
66430;BME280;53242;51.694;10.006;2023-02-28T07:27:05;101002.94;;;1.21;58.49
66430;BME280;53242;51.694;10.006;2023-02-28T07:29:28;101001.97;;;1.37;57.81
66430;BME280;53242;51.694;10.006;2023-02-28T07:31:51;101001.16;;;1.22;58.04
66430;BME280;53242;51.694;10.006;2023-02-28T07:34:15;100994.75;;;1.13;58.27
66430;BME280;53242;51.694;10.006;2023-02-28T07:36:37;101001.06;;;1.23;58.11
66430;BME280;53242;51.694;10.006;2023-02-28T07:39:00;100995.25;;;1.33;58.72
66430;BME280;53242;51.694;10.006;2023-02-28T07:41:22;101002.44;;;1.56;57.66
66430;BME280;53242;51.694;10.006;2023-02-28T07:43:46;100999.31;;;1.51;57.87
66430;BME280;53242;51.694;10.006;2023-02-28T07:46:11;101001.06;;;1.51;57.59
66430;BME280;53242;51.694;10.006;2023-02-28T07:48:34;100996.34;;;1.43;57.67
66430;BME280;53242;51.694;10.006;2023-02-28T07:50:57;101007.16;;;1.64;57.46
66430;BME280;53242;51.694;10.006;2023-02-28T07:53:20;101012.19;;;1.80;57.52
66430;BME280;53242;51.694;10.006;2023-02-28T07:55:42;101004.69;;;1.75;57.11
66430;BME280;53242;51.694;10.006;2023-02-28T07:58:05;101012.19;;;1.80;57.17
66430;BME280;53242;51.694;10.006;2023-02-28T08:00:27;101011.25;;;1.81;57.15
66430;BME280;53242;51.694;10.006;2023-02-28T08:02:51;101008.97;;;1.89;57.31
66430;BME280;53242;51.694;10.006;2023-02-28T08:05:13;101018.81;;;1.99;56.77
66430;BME280;53242;51.694;10.006;2023-02-28T08:07:37;101011.03;;;2.24;56.54
66430;BME280;53242;51.694;10.006;2023-02-28T08:09:59;101013.44;;;2.27;56.58
66430;BME280;53242;51.694;10.006;2023-02-28T08:12:22;101014.38;;;2.52;55.87
66430;BME280;53242;51.694;10.006;2023-02-28T08:14:44;101015.41;;;2.50;55.96
66430;BME280;53242;51.694;10.006;2023-02-28T08:17:07;101010.94;;;2.39;56.24
66430;BME280;53242;51.694;10.006;2023-02-28T08:19:29;101003.53;;;2.71;55.94
66430;BME280;53242;51.694;10.006;2023-02-28T08:21:52;101013.44;;;2.66;55.79
66430;BME280;53242;51.694;10.006;2023-02-28T08:24:14;101007.94;;;2.58;55.86
66430;BME280;53242;51.694;10.006;2023-02-28T08:26:37;101011.34;;;2.71;55.50
66430;BME280;53242;51.694;10.006;2023-02-28T08:28:59;101018.53;;;2.68;55.77
66430;BME280;53242;51.694;10.006;2023-02-28T08:31:21;101004.06;;;2.63;55.80
66430;BME280;53242;51.694;10.006;2023-02-28T08:33:45;101005.19;;;2.85;55.52
66430;BME280;53242;51.694;10.006;2023-02-28T08:36:08;100998.03;;;3.13;54.63
66430;BME280;53242;51.694;10.006;2023-02-28T08:38:31;101002.41;;;3.12;54.41
66430;BME280;53242;51.694;10.006;2023-02-28T08:40:57;101005.78;;;3.02;54.56
66430;BME280;53242;51.694;10.006;2023-02-28T08:43:20;101010.53;;;2.71;53.85
66430;BME280;53242;51.694;10.006;2023-02-28T08:45:43;101007.84;;;3.09;54.16
66430;BME280;53242;51.694;10.006;2023-02-28T08:48:05;101008.47;;;3.13;53.95
66430;BME280;53242;51.694;10.006;2023-02-28T08:50:28;101000.72;;;3.11;53.65
66430;BME280;53242;51.694;10.006;2023-02-28T08:52:50;101011.06;;;3.13;52.93
66430;BME280;53242;51.694;10.006;2023-02-28T08:55:12;101004.38;;;3.09;53.68
66430;BME280;53242;51.694;10.006;2023-02-28T08:57:35;101007.44;;;3.03;51.85
66430;BME280;53242;51.694;10.006;2023-02-28T08:59:57;101001.34;;;3.15;51.33
66430;BME280;53242;51.694;10.006;2023-02-28T09:02:20;100994.47;;;3.38;51.67
66430;BME280;53242;51.694;10.006;2023-02-28T09:04:42;101003.28;;;3.24;51.36
66430;BME280;53242;51.694;10.006;2023-02-28T09:07:07;101002.69;;;3.45;49.67
66430;BME280;53242;51.694;10.006;2023-02-28T09:09:29;100998.00;;;3.26;50.05
66430;BME280;53242;51.694;10.006;2023-02-28T09:11:52;100997.81;;;3.40;48.84
66430;BME280;53242;51.694;10.006;2023-02-28T09:14:14;101004.19;;;3.12;49.00
66430;BME280;53242;51.694;10.006;2023-02-28T09:16:37;100998.91;;;3.73;48.63
66430;BME280;53242;51.694;10.006;2023-02-28T09:18:59;101003.34;;;3.84;48.09
66430;BME280;53242;51.694;10.006;2023-02-28T09:21:22;101001.25;;;3.65;46.95
66430;BME280;53242;51.694;10.006;2023-02-28T09:23:47;101002.03;;;3.78;46.74
66430;BME280;53242;51.694;10.006;2023-02-28T09:26:24;100998.59;;;4.14;45.61
66430;BME280;53242;51.694;10.006;2023-02-28T09:28:47;101004.19;;;3.60;47.51
66430;BME280;53242;51.694;10.006;2023-02-28T09:31:15;101003.69;;;3.79;45.95
66430;BME280;53242;51.694;10.006;2023-02-28T09:33:38;101007.47;;;3.51;45.83
66430;BME280;53242;51.694;10.006;2023-02-28T09:36:02;101011.97;;;3.73;45.62
66430;BME280;53242;51.694;10.006;2023-02-28T09:38:25;101009.06;;;3.89;46.12
66430;BME280;53242;51.694;10.006;2023-02-28T09:41:13;101014.06;;;3.92;45.04
66430;BME280;53242;51.694;10.006;2023-02-28T09:43:39;101011.25;;;4.07;45.60
66430;BME280;53242;51.694;10.006;2023-02-28T09:46:42;101002.69;;;3.69;45.43
66430;BME280;53242;51.694;10.006;2023-02-28T09:49:11;101008.88;;;4.04;46.20
66430;BME280;53242;51.694;10.006;2023-02-28T09:51:43;101009.13;;;4.12;44.75
66430;BME280;53242;51.694;10.006;2023-02-28T09:54:11;101007.97;;;3.81;46.34
66430;BME280;53242;51.694;10.006;2023-02-28T09:56:39;101010.44;;;4.06;46.29
66430;BME280;53242;51.694;10.006;2023-02-28T10:01:39;100998.69;;;4.23;44.53
66430;BME280;53242;51.694;10.006;2023-02-28T10:04:16;101002.25;;;4.22;44.73
66430;BME280;53242;51.694;10.006;2023-02-28T10:06:49;101021.78;;;3.94;44.80
66430;BME280;53242;51.694;10.006;2023-02-28T10:09:24;101008.75;;;4.05;43.92
66430;BME280;53242;51.694;10.006;2023-02-28T10:11:48;101007.41;;;3.88;43.83
66430;BME280;53242;51.694;10.006;2023-02-28T10:14:13;100999.81;;;3.61;43.39
66430;BME280;53242;51.694;10.006;2023-02-28T10:16:38;101007.47;;;3.51;43.91
66430;BME280;53242;51.694;10.006;2023-02-28T10:19:14;101018.31;;;3.34;43.83
66430;BME280;53242;51.694;10.006;2023-02-28T10:21:41;100994.88;;;3.45;43.61
66430;BME280;53242;51.694;10.006;2023-02-28T10:24:30;101001.81;;;3.57;44.17
66430;BME280;53242;51.694;10.006;2023-02-28T10:26:59;101000.69;;;3.73;43.38
66430;BME280;53242;51.694;10.006;2023-02-28T10:29:22;100998.28;;;3.94;43.97
66430;BME280;53242;51.694;10.006;2023-02-28T10:31:44;101004.59;;;3.67;43.71
66430;BME280;53242;51.694;10.006;2023-02-28T10:34:07;100991.16;;;3.96;43.46
66430;BME280;53242;51.694;10.006;2023-02-28T10:36:33;100996.53;;;4.17;43.51
66430;BME280;53242;51.694;10.006;2023-02-28T10:38:56;100993.84;;;3.83;43.45
66430;BME280;53242;51.694;10.006;2023-02-28T10:41:32;100987.66;;;4.31;43.88
66430;BME280;53242;51.694;10.006;2023-02-28T10:44:21;100993.25;;;4.38;43.51
66430;BME280;53242;51.694;10.006;2023-02-28T10:46:44;100997.31;;;4.31;42.67
66430;BME280;53242;51.694;10.006;2023-02-28T10:49:15;100988.41;;;4.56;42.20
66430;BME280;53242;51.694;10.006;2023-02-28T10:51:41;100993.03;;;4.30;42.33
66430;BME280;53242;51.694;10.006;2023-02-28T10:54:03;100997.03;;;4.22;41.74
66430;BME280;53242;51.694;10.006;2023-02-28T10:56:26;100988.50;;;4.20;42.37
66430;BME280;53242;51.694;10.006;2023-02-28T11:01:17;100977.09;;;4.21;41.65
66430;BME280;53242;51.694;10.006;2023-02-28T11:03:40;100986.94;;;4.18;41.99
66430;BME280;53242;51.694;10.006;2023-02-28T11:06:15;100989.66;;;4.05;41.62
66430;BME280;53242;51.694;10.006;2023-02-28T11:08:56;100987.66;;;4.31;41.83
66430;BME280;53242;51.694;10.006;2023-02-28T11:11:21;100979.22;;;4.27;41.88
66430;BME280;53242;51.694;10.006;2023-02-28T11:13:46;100978.06;;;4.43;41.85
66430;BME280;53242;51.694;10.006;2023-02-28T11:16:12;100971.16;;;4.65;40.92
66430;BME280;53242;51.694;10.006;2023-02-28T11:18:53;100969.28;;;4.78;40.93
66430;BME280;53242;51.694;10.006;2023-02-28T11:21:27;100967.00;;;4.85;41.74
66430;BME280;53242;51.694;10.006;2023-02-28T11:23:52;100963.31;;;4.87;41.71
66430;BME280;53242;51.694;10.006;2023-02-28T11:26:38;100966.13;;;5.07;42.42
66430;BME280;53242;51.694;10.006;2023-02-28T11:29:16;100961.31;;;4.91;41.13
66430;BME280;53242;51.694;10.006;2023-02-28T11:31:41;100960.69;;;4.99;40.91
66430;BME280;53242;51.694;10.006;2023-02-28T11:34:23;100961.19;;;4.81;40.44
66430;BME280;53242;51.694;10.006;2023-02-28T11:36:54;100953.19;;;5.05;40.68
66430;BME280;53242;51.694;10.006;2023-02-28T11:39:17;100962.13;;;4.91;41.31
66430;BME280;53242;51.694;10.006;2023-02-28T11:42:04;100955.94;;;4.70;41.10
66430;BME280;53242;51.694;10.006;2023-02-28T11:47:15;100943.47;;;4.73;41.22
66430;BME280;53242;51.694;10.006;2023-02-28T11:52:21;100940.72;;;4.98;41.07
66430;BME280;53242;51.694;10.006;2023-02-28T11:55:04;100943.81;;;4.91;40.35
66430;BME280;53242;51.694;10.006;2023-02-28T12:02:41;100939.97;;;4.96;40.46
66430;BME280;53242;51.694;10.006;2023-02-28T12:05:24;100929.19;;;4.89;41.28
66430;BME280;53242;51.694;10.006;2023-02-28T12:10:35;100926.25;;;5.15;40.92
66430;BME280;53242;51.694;10.006;2023-02-28T12:13:15;100928.09;;;4.91;40.41
66430;BME280;53242;51.694;10.006;2023-02-28T12:15:56;100925.38;;;4.93;40.67
66430;BME280;53242;51.694;10.006;2023-02-28T12:18:30;100922.97;;;5.01;40.61
66430;BME280;53242;51.694;10.006;2023-02-28T12:21:31;100910.38;;;5.06;39.93
66430;BME280;53242;51.694;10.006;2023-02-28T12:26:41;100912.06;;;5.29;40.18
66430;BME280;53242;51.694;10.006;2023-02-28T12:29:10;100908.72;;;5.26;39.83
66430;BME280;53242;51.694;10.006;2023-02-28T12:31:54;100908.25;;;5.33;40.04
66430;BME280;53242;51.694;10.006;2023-02-28T12:34:25;100909.31;;;5.30;41.22
66430;BME280;53242;51.694;10.006;2023-02-28T12:36:52;100912.31;;;5.25;40.16
66430;BME280;53242;51.694;10.006;2023-02-28T12:39:45;100900.44;;;5.54;40.08
66430;BME280;53242;51.694;10.006;2023-02-28T12:42:13;100905.25;;;5.37;40.95
66430;BME280;53242;51.694;10.006;2023-02-28T12:44:49;100906.41;;;5.44;40.18
66430;BME280;53242;51.694;10.006;2023-02-28T12:47:16;100904.09;;;5.30;41.43
66430;BME280;53242;51.694;10.006;2023-02-28T12:49:47;100896.78;;;5.45;40.90
66430;BME280;53242;51.694;10.006;2023-02-28T12:52:13;100896.31;;;5.40;41.50
66430;BME280;53242;51.694;10.006;2023-02-28T12:54:48;100901.91;;;5.14;41.32
66430;BME280;53242;51.694;10.006;2023-02-28T12:57:19;100897.47;;;5.47;40.95
66430;BME280;53242;51.694;10.006;2023-02-28T12:59:54;100898.53;;;5.44;40.92
66430;BME280;53242;51.694;10.006;2023-02-28T13:02:41;100898.31;;;5.48;40.80
66430;BME280;53242;51.694;10.006;2023-02-28T13:05:29;100894.91;;;5.57;41.03
66430;BME280;53242;51.694;10.006;2023-02-28T13:08:27;100899.38;;;5.45;40.84
66430;BME280;53242;51.694;10.006;2023-02-28T13:10:57;100897.03;;;5.63;41.24
66430;BME280;53242;51.694;10.006;2023-02-28T13:13:23;100891.59;;;5.55;40.71
66430;BME280;53242;51.694;10.006;2023-02-28T13:16:04;100877.47;;;5.67;40.96
66430;BME280;53242;51.694;10.006;2023-02-28T13:18:42;100892.88;;;5.60;41.27
66430;BME280;53242;51.694;10.006;2023-02-28T13:21:18;100884.00;;;5.52;40.71
66430;BME280;53242;51.694;10.006;2023-02-28T13:26:09;100892.66;;;5.31;40.74
66430;BME280;53242;51.694;10.006;2023-02-28T13:31:31;100885.16;;;5.59;41.33
66430;BME280;53242;51.694;10.006;2023-02-28T13:38:45;100877.22;;;5.70;41.26
66430;BME280;53242;51.694;10.006;2023-02-28T13:44:13;100884.63;;;5.44;41.14
66430;BME280;53242;51.694;10.006;2023-02-28T13:49:31;100865.75;;;5.62;41.21
66430;BME280;53242;51.694;10.006;2023-02-28T13:57:39;100868.09;;;5.43;41.34
66430;BME280;53242;51.694;10.006;2023-02-28T14:00:35;100852.63;;;5.40;40.65
66430;BME280;53242;51.694;10.006;2023-02-28T14:05:32;100853.25;;;5.33;40.76